createdAt,value
2019-04-26T00:00:53.039Z,13.30
2019-04-26T00:02:04.039Z,13.20
2019-04-26T00:03:10.333Z,13.20
2019-04-26T00:04:16.237Z,13.20
2019-04-26T00:05:33.678Z,13.30
2019-04-26T00:06:28.524Z,13.30
2019-04-26T00:07:33.774Z,13.30
2019-04-26T00:08:39.602Z,13.30
2019-04-26T00:09:45.270Z,13.20
2019-04-26T00:10:56.951Z,13.30
2019-04-26T00:12:21.211Z,13.30
2019-04-26T00:13:48.912Z,13.30
2019-04-26T00:15:16.389Z,13.30
2019-04-26T00:16:37.507Z,13.30
2019-04-26T00:18:07.934Z,13.30
2019-04-26T00:19:13.807Z,13.30
2019-04-26T00:20:19.369Z,13.30
2019-04-26T00:21:24.590Z,13.30
2019-04-26T00:22:30.127Z,13.30
2019-04-26T00:23:35.272Z,13.30
2019-04-26T00:24:40.938Z,13.20
2019-04-26T00:25:46.268Z,13.20
2019-04-26T00:26:51.609Z,13.20
2019-04-26T00:27:56.831Z,13.20
2019-04-26T00:29:03.179Z,13.20
2019-04-26T00:30:09.364Z,13.20
2019-04-26T00:31:17.145Z,13.20
2019-04-26T00:32:22.674Z,13.20
2019-04-26T00:33:27.955Z,13.20
2019-04-26T00:34:33.243Z,13.20
2019-04-26T00:35:47.394Z,13.20
2019-04-26T00:36:45.501Z,13.30
2019-04-26T00:37:50.665Z,13.20
2019-04-26T00:38:55.887Z,13.20
2019-04-26T00:40:02.187Z,13.20
2019-04-26T00:41:08.061Z,13.20
2019-04-26T00:42:14.581Z,13.20
2019-04-26T00:43:20.580Z,13.20
2019-04-26T00:44:26.160Z,13.20
2019-04-26T00:45:33.892Z,13.20
2019-04-26T00:46:42.465Z,13.10
2019-04-26T00:47:49.113Z,13.20
2019-04-26T00:48:56.663Z,13.20
2019-04-26T00:50:02.551Z,13.20
2019-04-26T00:51:08.723Z,13.20
2019-04-26T00:52:15.714Z,13.20
2019-04-26T00:53:21.891Z,13.20
2019-04-26T00:54:27.310Z,13.20
2019-04-26T00:55:34.690Z,13.20
2019-04-26T00:56:40.555Z,13.20
2019-04-26T00:57:46.734Z,13.20
2019-04-26T00:58:52.667Z,13.10
2019-04-26T00:59:58.425Z,13.10
2019-04-26T01:01:03.754Z,13.00
2019-04-26T01:02:25.194Z,13.00
2019-04-26T01:03:31.564Z,13.00
2019-04-26T01:04:36.742Z,13.00
2019-04-26T01:05:42.023Z,13.00
2019-04-26T01:06:48.840Z,12.90
2019-04-26T01:07:55.557Z,12.90
2019-04-26T01:09:02.455Z,12.90
2019-04-26T01:10:09.472Z,12.90
2019-04-26T01:11:16.207Z,12.80
2019-04-26T01:12:21.855Z,12.80
2019-04-26T01:13:27.443Z,12.80
2019-04-26T01:14:32.613Z,12.70
2019-04-26T01:15:37.867Z,12.80
2019-04-26T01:16:43.114Z,12.70
2019-04-26T01:17:48.287Z,12.70
2019-04-26T01:18:54.295Z,12.70
2019-04-26T01:19:59.930Z,12.70
2019-04-26T01:21:07.591Z,12.70
2019-04-26T01:22:18.385Z,12.60
2019-04-26T01:23:27.588Z,12.60
2019-04-26T01:24:35.269Z,12.60
2019-04-26T01:26:21.151Z,12.60
2019-04-26T01:27:28.330Z,12.60
2019-04-26T01:28:47.894Z,12.60
2019-04-26T01:29:55.667Z,12.60
2019-04-26T01:31:03.087Z,12.50
2019-04-26T01:32:12.155Z,12.50
2019-04-26T01:33:18.770Z,12.50
2019-04-26T01:34:26.302Z,12.50
2019-04-26T01:35:31.673Z,12.50
2019-04-26T01:36:38.866Z,12.40
2019-04-26T01:37:46.165Z,12.40
2019-04-26T01:38:54.316Z,12.50
2019-04-26T01:40:05.082Z,12.50
2019-04-26T01:41:15.874Z,12.40
2019-04-26T01:42:32.829Z,12.40
2019-04-26T01:44:04.345Z,12.40
2019-04-26T01:45:15.082Z,12.40
2019-04-26T01:46:27.446Z,12.40
2019-04-26T01:47:33.343Z,12.40
2019-04-26T01:49:04.588Z,12.40
2019-04-26T01:50:11.783Z,12.40
2019-04-26T01:51:29.633Z,12.40
2019-04-26T01:52:34.921Z,12.40
2019-04-26T01:53:40.511Z,12.40
2019-04-26T01:54:46.659Z,12.40
2019-04-26T01:55:52.012Z,12.40
2019-04-26T01:57:01.435Z,12.40
2019-04-26T01:58:07.247Z,12.30
2019-04-26T01:59:15.788Z,12.30
2019-04-26T02:00:31.696Z,12.30
2019-04-26T02:02:07.082Z,12.30
2019-04-26T02:03:22.912Z,12.30
2019-04-26T02:04:32.019Z,12.30
2019-04-26T02:05:37.200Z,12.30
2019-04-26T02:06:42.480Z,12.30
2019-04-26T02:07:47.825Z,12.30
2019-04-26T02:08:53.142Z,12.30
2019-04-26T02:09:59.491Z,12.30
2019-04-26T02:11:04.793Z,12.30
2019-04-26T02:12:10.175Z,12.30
2019-04-26T02:13:15.476Z,12.30
2019-04-26T02:14:20.682Z,12.20
2019-04-26T02:15:29.378Z,12.20
2019-04-26T02:16:34.941Z,12.20
2019-04-26T02:17:41.753Z,12.20
2019-04-26T02:18:47.017Z,12.20
2019-04-26T02:19:52.422Z,12.20
2019-04-26T02:21:35.488Z,12.20
2019-04-26T02:23:00.346Z,12.20
2019-04-26T02:24:11.527Z,12.20
2019-04-26T02:25:16.702Z,12.20
2019-04-26T02:26:32.627Z,12.20
2019-04-26T02:27:37.851Z,12.20
2019-04-26T02:28:43.090Z,12.20
2019-04-26T02:29:48.337Z,12.20
2019-04-26T02:30:53.936Z,12.20
2019-04-26T02:32:03.562Z,12.20
2019-04-26T02:33:08.830Z,12.20
2019-04-26T02:34:15.054Z,12.20
2019-04-26T02:35:20.283Z,12.20
2019-04-26T02:36:46.421Z,12.20
2019-04-26T02:37:34.568Z,12.20
2019-04-26T02:38:39.835Z,12.20
2019-04-26T02:39:45.076Z,12.30
2019-04-26T02:40:51.050Z,12.30
2019-04-26T02:41:59.459Z,12.30
2019-04-26T02:43:04.624Z,12.30
2019-04-26T02:44:12.805Z,12.40
2019-04-26T02:46:06.165Z,12.30
2019-04-26T02:47:49.649Z,12.30
2019-04-26T02:49:12.843Z,12.30
2019-04-26T02:50:28.330Z,12.40
2019-04-26T02:51:38.273Z,12.30
2019-04-26T02:52:53.256Z,12.30
2019-04-26T02:54:16.958Z,12.30
2019-04-26T02:55:58.174Z,12.30
2019-04-26T02:57:04.143Z,12.30
2019-04-26T02:58:11.303Z,12.30
2019-04-26T02:59:41.753Z,12.30
2019-04-26T03:00:47.386Z,12.30
2019-04-26T03:01:56.323Z,12.30
2019-04-26T03:03:04.828Z,12.30
2019-04-26T03:04:10.076Z,12.40
2019-04-26T03:05:16.655Z,12.30
2019-04-26T03:06:22.311Z,12.30
2019-04-26T03:07:37.246Z,12.30
2019-04-26T03:08:42.803Z,12.30
2019-04-26T03:09:51.279Z,12.30
2019-04-26T03:11:02.772Z,12.30
2019-04-26T03:12:11.686Z,12.30
2019-04-26T03:13:38.072Z,12.30
2019-04-26T03:15:13.538Z,12.30
2019-04-26T03:16:42.957Z,12.20
2019-04-26T03:18:11.599Z,12.30
2019-04-26T03:19:33.764Z,12.30
2019-04-26T03:20:42.290Z,12.30
2019-04-26T03:22:08.457Z,12.30
2019-04-26T03:23:45.957Z,12.30
2019-04-26T03:25:01.287Z,12.30
2019-04-26T03:26:36.998Z,12.30
2019-04-26T03:27:54.369Z,12.30
2019-04-26T03:29:10.938Z,12.30
2019-04-26T03:30:48.657Z,12.30
2019-04-26T03:32:17.115Z,12.30
2019-04-26T03:33:58.419Z,12.20
2019-04-26T03:35:23.732Z,12.20
2019-04-26T03:37:19.654Z,12.20
2019-04-26T03:38:22.903Z,12.20
2019-04-26T03:39:45.290Z,12.20
2019-04-26T03:41:20.940Z,12.20
2019-04-26T03:42:53.394Z,12.20
2019-04-26T03:44:38.368Z,12.20
2019-04-26T03:46:14.255Z,12.20
2019-04-26T03:47:24.149Z,12.10
2019-04-26T03:48:53.579Z,12.20
2019-04-26T03:50:11.949Z,12.20
2019-04-26T03:51:27.185Z,12.20
2019-04-26T03:53:10.981Z,12.20
2019-04-26T03:54:20.313Z,12.20
2019-04-26T03:55:58.921Z,12.30
2019-04-26T03:57:32.225Z,12.20
2019-04-26T03:59:10.828Z,12.20
2019-04-26T04:00:42.613Z,12.20
2019-04-26T04:02:03.016Z,12.20
2019-04-26T04:03:58.532Z,12.10
2019-04-26T04:05:25.419Z,12.10
2019-04-26T04:06:48.741Z,12.10
2019-04-26T04:07:48.064Z,12.10
2019-04-26T04:08:58.411Z,12.10
2019-04-26T04:10:08.103Z,12.10
2019-04-26T04:11:17.343Z,12.10
2019-04-26T04:12:43.947Z,12.10
2019-04-26T04:14:16.854Z,12.10
2019-04-26T04:15:32.229Z,12.10
2019-04-26T04:17:10.517Z,12.20
2019-04-26T04:18:21.772Z,12.10
2019-04-26T04:20:17.716Z,12.10
2019-04-26T04:21:42.597Z,12.10
2019-04-26T04:22:54.012Z,12.10
2019-04-26T04:24:09.755Z,12.00
2019-04-26T04:25:19.835Z,12.10
2019-04-26T04:26:39.064Z,12.10
2019-04-26T04:28:07.007Z,12.10
2019-04-26T04:29:53.476Z,12.10
2019-04-26T04:31:17.859Z,12.10
2019-04-26T04:32:34.203Z,12.00
2019-04-26T04:34:06.949Z,12.10
2019-04-26T04:35:13.184Z,12.10
2019-04-26T04:36:26.633Z,12.10
2019-04-26T04:37:52.549Z,12.10
2019-04-26T04:39:11.153Z,12.10
2019-04-26T04:40:38.112Z,12.10
2019-04-26T04:42:30.173Z,12.10
2019-04-26T04:43:44.296Z,12.00
2019-04-26T04:45:19.737Z,12.00
2019-04-26T04:47:33.306Z,12.00
2019-04-26T04:49:18.985Z,12.10
2019-04-26T04:50:40.953Z,12.00
2019-04-26T04:52:11.264Z,12.00
2019-04-26T04:53:52.077Z,12.10
2019-04-26T04:55:08.183Z,12.10
2019-04-26T04:56:42.088Z,12.10
2019-04-26T04:58:17.536Z,12.10
2019-04-26T04:59:30.313Z,12.10
2019-04-26T05:01:23.927Z,12.10
2019-04-26T05:03:00.105Z,12.10
2019-04-26T05:04:20.325Z,12.10
2019-04-26T05:05:54.331Z,12.00
2019-04-26T05:07:23.713Z,12.00
2019-04-26T05:09:06.241Z,12.00
2019-04-26T05:10:19.788Z,12.00
2019-04-26T05:11:57.064Z,12.00
2019-04-26T05:13:31.943Z,12.00
2019-04-26T05:15:08.728Z,12.00
2019-04-26T05:16:56.797Z,12.00
2019-04-26T05:18:48.576Z,12.00
2019-04-26T05:20:16.818Z,12.00
2019-04-26T05:21:46.708Z,12.00
2019-04-26T05:23:37.345Z,12.00
2019-04-26T05:25:08.447Z,12.00
2019-04-26T05:27:34.722Z,12.00
2019-04-26T05:28:58.588Z,11.90
2019-04-26T05:30:47.812Z,12.00
2019-04-26T05:32:06.114Z,12.00
2019-04-26T05:33:27.997Z,12.00
2019-04-26T05:34:49.042Z,11.90
2019-04-26T05:36:40.289Z,12.00
2019-04-26T05:38:01.099Z,12.00
2019-04-26T05:39:24.315Z,12.00
2019-04-26T05:41:17.291Z,11.90
2019-04-26T05:43:17.173Z,11.90
2019-04-26T05:45:10.160Z,11.90
2019-04-26T05:47:13.891Z,12.00
2019-04-26T05:49:06.493Z,12.00
2019-04-26T05:50:55.839Z,12.10
2019-04-26T05:52:36.381Z,12.10
2019-04-26T05:54:42.994Z,12.10
2019-04-26T05:56:36.706Z,12.00
2019-04-26T05:58:26.685Z,12.00
2019-04-26T05:59:53.807Z,12.00
2019-04-26T06:02:12.950Z,11.90
2019-04-26T06:04:26.481Z,11.90
2019-04-26T06:06:09.560Z,11.90
2019-04-26T06:08:30.716Z,11.90
2019-04-26T06:10:19.291Z,11.90
2019-04-26T06:11:34.978Z,11.90
2019-04-26T06:12:54.938Z,11.90
2019-04-26T06:14:38.380Z,12.00
2019-04-26T06:16:09.490Z,11.90
2019-04-26T06:17:53.400Z,12.00
2019-04-26T06:19:21.269Z,11.90
2019-04-26T06:20:36.647Z,11.90
2019-04-26T06:22:08.891Z,12.00
2019-04-26T06:23:25.688Z,12.00
2019-04-26T06:25:16.646Z,11.90
2019-04-26T06:27:13.782Z,11.90
2019-04-26T06:28:25.735Z,12.00
2019-04-26T06:29:44.208Z,12.00
2019-04-26T06:31:22.540Z,12.00
2019-04-26T06:32:40.683Z,12.00
2019-04-26T06:34:12.508Z,12.00
2019-04-26T06:35:21.380Z,12.00
2019-04-26T06:36:36.701Z,12.00
2019-04-26T06:38:26.742Z,11.90
2019-04-26T06:40:02.314Z,11.90
2019-04-26T06:42:00.776Z,11.90
2019-04-26T06:43:18.730Z,11.90
2019-04-26T06:44:29.635Z,11.90
2019-04-26T06:46:07.323Z,11.80
2019-04-26T06:47:26.798Z,11.80
2019-04-26T06:48:45.989Z,11.70
2019-04-26T06:50:25.101Z,11.70
2019-04-26T06:51:40.936Z,11.70
2019-04-26T06:52:58.081Z,11.70
2019-04-26T06:54:15.624Z,11.70
2019-04-26T06:55:47.426Z,11.70
2019-04-26T06:57:59.339Z,11.70
2019-04-26T06:59:36.950Z,11.70
2019-04-26T07:01:03.211Z,11.70
2019-04-26T07:02:21.052Z,11.70
2019-04-26T07:03:55.492Z,11.70
2019-04-26T07:05:21.874Z,11.70
2019-04-26T07:06:35.105Z,11.80
2019-04-26T07:08:21.915Z,11.80
2019-04-26T07:09:29.422Z,11.80
2019-04-26T07:10:52.736Z,11.90
2019-04-26T07:12:27.488Z,11.90
2019-04-26T07:14:19.804Z,12.00
2019-04-26T07:16:01.413Z,12.00
2019-04-26T07:17:13.046Z,12.00
2019-04-26T07:18:58.330Z,12.00
2019-04-26T07:20:41.502Z,12.00
2019-04-26T07:22:47.152Z,12.10
2019-04-26T07:24:28.077Z,12.10
2019-04-26T07:26:11.156Z,12.10
2019-04-26T07:27:35.513Z,12.10
2019-04-26T07:29:30.453Z,12.10
2019-04-26T07:30:57.992Z,12.00
2019-04-26T07:32:14.147Z,12.00
2019-04-26T07:33:48.211Z,12.00
2019-04-26T07:35:18.605Z,12.00
2019-04-26T07:37:04.662Z,11.90
2019-04-26T07:38:25.712Z,11.90
2019-04-26T07:40:45.052Z,11.90
2019-04-26T07:42:31.516Z,11.90
2019-04-26T07:44:21.239Z,11.90
2019-04-26T07:46:21.471Z,11.90
2019-04-26T07:48:18.977Z,11.90
2019-04-26T07:50:07.380Z,11.90
2019-04-26T07:51:56.274Z,12.00
2019-04-26T07:53:33.813Z,12.00
2019-04-26T07:55:27.353Z,12.00
2019-04-26T07:57:10.749Z,12.00
2019-04-26T07:58:52.777Z,12.00
2019-04-26T08:00:13.086Z,12.00
2019-04-26T08:02:03.738Z,12.00
2019-04-26T08:03:26.916Z,12.00
2019-04-26T08:04:37.478Z,12.00
2019-04-26T08:06:07.505Z,12.00
2019-04-26T08:07:21.081Z,12.00
2019-04-26T08:08:29.941Z,12.00
2019-04-26T08:09:38.173Z,11.90
2019-04-26T08:10:50.191Z,11.90
2019-04-26T08:12:01.204Z,11.90
2019-04-26T08:13:10.161Z,11.90
2019-04-26T08:14:19.864Z,11.90
2019-04-26T08:15:55.911Z,12.00
2019-04-26T08:17:21.742Z,12.00
2019-04-26T08:18:37.518Z,11.90
2019-04-26T08:19:53.546Z,12.00
2019-04-26T08:21:06.557Z,12.00
2019-04-26T08:22:20.333Z,12.00
2019-04-26T08:23:39.206Z,12.10
2019-04-26T08:24:33.775Z,12.10
2019-04-26T08:25:40.748Z,12.10
2019-04-26T08:26:50.375Z,12.10
2019-04-26T08:27:58.312Z,12.10
2019-04-26T08:29:06.700Z,12.10
2019-04-26T08:30:18.599Z,12.20
2019-04-26T08:31:26.256Z,12.20
2019-04-26T08:32:37.161Z,12.20
2019-04-26T08:33:49.629Z,12.30
2019-04-26T08:35:02.415Z,12.30
2019-04-26T08:36:11.109Z,12.30
2019-04-26T08:37:37.986Z,12.40
2019-04-26T08:38:44.913Z,12.30
2019-04-26T08:39:52.108Z,12.30
2019-04-26T08:41:00.505Z,12.30
2019-04-26T08:42:11.802Z,12.20
2019-04-26T08:43:47.082Z,12.20
2019-04-26T08:45:04.593Z,12.10
2019-04-26T08:46:37.527Z,12.20
2019-04-26T08:48:12.229Z,12.10
2019-04-26T08:49:28.416Z,12.10
2019-04-26T08:50:45.905Z,12.10
2019-04-26T08:51:55.773Z,12.10
2019-04-26T08:53:02.209Z,12.10
2019-04-26T08:54:13.113Z,12.10
2019-04-26T08:55:20.425Z,12.10
2019-04-26T08:56:29.512Z,12.00
2019-04-26T08:57:37.619Z,12.00
2019-04-26T08:58:46.002Z,12.10
2019-04-26T08:59:55.600Z,12.10
2019-04-26T09:01:23.415Z,12.20
2019-04-26T09:02:48.537Z,12.20
2019-04-26T09:04:18.272Z,12.20
2019-04-26T09:05:41.716Z,12.20
2019-04-26T09:06:57.790Z,12.30
2019-04-26T09:08:04.111Z,12.30
2019-04-26T09:09:18.143Z,12.30
2019-04-26T09:10:26.288Z,12.20
2019-04-26T09:11:34.181Z,12.20
2019-04-26T09:12:42.504Z,12.30
2019-04-26T09:13:50.905Z,12.30
2019-04-26T09:14:59.331Z,12.30
2019-04-26T09:16:16.850Z,12.30
2019-04-26T09:17:22.211Z,12.50
2019-04-26T09:18:27.880Z,12.50
2019-04-26T09:19:33.406Z,12.60
2019-04-26T09:20:46.481Z,12.60
2019-04-26T09:22:13.180Z,12.70
2019-04-26T09:23:50.898Z,12.70
2019-04-26T09:24:59.685Z,12.80
2019-04-26T09:26:03.892Z,12.80
2019-04-26T09:27:20.995Z,12.80
2019-04-26T09:28:56.602Z,12.80
2019-04-26T09:30:12.495Z,12.80
2019-04-26T09:31:33.293Z,13.00
2019-04-26T09:33:03.078Z,13.00
2019-04-26T09:34:10.465Z,13.10
2019-04-26T09:35:16.914Z,13.20
2019-04-26T09:36:22.181Z,13.20
2019-04-26T09:37:27.281Z,13.30
2019-04-26T09:38:32.561Z,13.20
2019-04-26T09:39:41.573Z,13.00
2019-04-26T09:40:44.839Z,13.10
2019-04-26T09:41:50.396Z,13.00
2019-04-26T09:43:16.600Z,13.10
2019-04-26T09:44:41.471Z,13.00
2019-04-26T09:45:59.439Z,12.90
2019-04-26T09:47:19.223Z,12.90
2019-04-26T09:48:28.867Z,12.90
2019-04-26T09:49:57.382Z,12.90
2019-04-26T09:51:03.318Z,12.90
2019-04-26T09:52:14.665Z,12.90
2019-04-26T09:53:20.901Z,12.90
2019-04-26T09:54:26.210Z,13.00
2019-04-26T09:55:35.656Z,13.00
2019-04-26T09:56:38.273Z,13.00
2019-04-26T09:57:43.413Z,13.00
2019-04-26T09:58:48.659Z,13.00
2019-04-26T09:59:53.888Z,13.10
2019-04-26T10:01:00.906Z,13.00
2019-04-26T10:02:06.702Z,13.10
2019-04-26T10:03:11.942Z,13.20
2019-04-26T10:04:18.026Z,13.20
2019-04-26T10:05:23.852Z,13.40
2019-04-26T10:06:29.703Z,13.40
2019-04-26T10:07:37.572Z,13.40
2019-04-26T10:08:43.337Z,13.50
2019-04-26T10:09:51.797Z,13.60
2019-04-26T10:10:56.679Z,13.60
2019-04-26T10:12:07.991Z,13.70
2019-04-26T10:13:25.981Z,13.60
2019-04-26T10:14:38.361Z,13.70
2019-04-26T10:16:21.024Z,13.60
2019-04-26T10:17:29.484Z,13.60
2019-04-26T10:18:39.111Z,13.70
2019-04-26T10:19:47.298Z,13.70
2019-04-26T10:20:52.528Z,13.60
2019-04-26T10:21:57.800Z,13.60
2019-04-26T10:23:03.479Z,13.60
2019-04-26T10:24:08.821Z,13.70
2019-04-26T10:25:16.879Z,13.70
2019-04-26T10:26:23.220Z,13.80
2019-04-26T10:27:28.283Z,13.80
2019-04-26T10:28:33.546Z,13.80
2019-04-26T10:29:38.794Z,13.90
2019-04-26T10:30:44.126Z,13.80
2019-04-26T10:31:51.842Z,13.80
2019-04-26T10:32:58.326Z,13.80
2019-04-26T10:34:03.195Z,13.80
2019-04-26T10:35:08.401Z,13.90
2019-04-26T10:36:13.813Z,13.80
2019-04-26T10:37:19.020Z,13.90
2019-04-26T10:38:25.505Z,13.90
2019-04-26T10:39:32.409Z,14.00
2019-04-26T10:40:37.748Z,13.90
2019-04-26T10:41:42.972Z,13.90
2019-04-26T10:42:48.329Z,13.90
2019-04-26T10:43:53.539Z,13.80
2019-04-26T10:44:59.787Z,13.80
2019-04-26T10:46:05.044Z,13.80
2019-04-26T10:47:10.281Z,13.90
2019-04-26T10:48:15.584Z,13.80
2019-04-26T10:49:42.573Z,13.90
2019-04-26T10:50:48.033Z,14.00
2019-04-26T10:51:53.397Z,14.10
2019-04-26T10:53:04.620Z,14.10
2019-04-26T10:54:15.184Z,14.10
2019-04-26T10:55:38.059Z,14.10
2019-04-26T10:56:48.985Z,14.20
2019-04-26T10:57:58.216Z,14.10
2019-04-26T10:59:31.837Z,14.20
2019-04-26T11:00:40.939Z,14.20
2019-04-26T11:01:46.361Z,14.20
2019-04-26T11:02:51.821Z,14.00
2019-04-26T11:03:57.174Z,13.90
2019-04-26T11:05:02.565Z,13.80
2019-04-26T11:06:08.206Z,13.80
2019-04-26T11:07:13.453Z,13.70
2019-04-26T11:08:18.685Z,13.70
2019-04-26T11:09:24.303Z,13.70
2019-04-26T11:10:29.819Z,13.60
2019-04-26T11:11:36.276Z,13.60
2019-04-26T11:12:43.481Z,13.60
2019-04-26T11:13:48.499Z,13.60
2019-04-26T11:14:56.946Z,13.70
2019-04-26T11:16:02.342Z,13.70
2019-04-26T11:17:11.601Z,13.70
2019-04-26T11:18:14.616Z,13.70
2019-04-26T11:19:20.835Z,13.70
2019-04-26T11:20:26.502Z,13.80
2019-04-26T11:21:31.755Z,13.80
2019-04-26T11:22:37.519Z,13.80
2019-04-26T11:23:45.630Z,13.80
2019-04-26T11:24:53.738Z,13.80
2019-04-26T11:26:01.616Z,13.80
2019-04-26T11:27:09.589Z,13.80
2019-04-26T11:28:13.406Z,13.90
2019-04-26T11:29:18.619Z,13.90
2019-04-26T11:30:23.879Z,14.00
2019-04-26T11:31:30.623Z,13.90
2019-04-26T11:32:36.786Z,13.80
2019-04-26T11:33:44.905Z,13.80
2019-04-26T11:34:49.948Z,13.90
2019-04-26T11:35:55.330Z,13.70
2019-04-26T11:37:00.590Z,13.70
2019-04-26T11:38:05.830Z,13.60
2019-04-26T11:39:15.292Z,13.50
2019-04-26T11:40:23.740Z,13.50
2019-04-26T11:41:29.109Z,13.50
2019-04-26T11:42:34.295Z,13.50
2019-04-26T11:43:39.616Z,13.50
2019-04-26T11:44:45.006Z,13.50
2019-04-26T11:45:50.480Z,13.60
2019-04-26T11:46:59.339Z,13.50
2019-04-26T11:48:03.343Z,13.60
2019-04-26T11:49:09.932Z,13.60
2019-04-26T11:50:16.269Z,13.70
2019-04-26T11:51:23.617Z,13.80
2019-04-26T11:52:32.121Z,13.90
2019-04-26T11:53:40.637Z,14.00
2019-04-26T11:54:43.860Z,14.10
2019-04-26T11:55:51.239Z,14.30
2019-04-26T11:56:56.576Z,14.20
2019-04-26T11:58:04.019Z,14.30
2019-04-26T11:59:09.359Z,14.30
2019-04-26T12:00:22.840Z,14.50
2019-04-26T12:01:29.462Z,14.50
2019-04-26T12:02:37.615Z,14.50
2019-04-26T12:03:59.449Z,14.50
2019-04-26T12:05:29.809Z,14.60
2019-04-26T12:07:03.293Z,14.80
2019-04-26T12:08:12.153Z,14.90
2019-04-26T12:09:22.581Z,14.90
2019-04-26T12:10:30.935Z,14.90
2019-04-26T12:11:36.274Z,15.00
2019-04-26T12:12:43.203Z,15.00
2019-04-26T12:13:48.454Z,15.10
2019-04-26T12:14:53.652Z,15.20
2019-04-26T12:15:59.046Z,15.20
2019-04-26T12:17:04.969Z,15.10
2019-04-26T12:18:11.170Z,15.10
2019-04-26T12:19:18.248Z,15.20
2019-04-26T12:20:26.925Z,15.20
2019-04-26T12:21:35.120Z,15.40
2019-04-26T12:22:43.354Z,15.30
2019-04-26T12:23:47.457Z,15.30
2019-04-26T12:24:52.668Z,15.40
2019-04-26T12:25:57.878Z,15.40
2019-04-26T12:27:03.157Z,15.40
2019-04-26T12:28:08.549Z,15.40
2019-04-26T12:29:16.898Z,15.40
2019-04-26T12:30:26.452Z,15.30
2019-04-26T12:31:29.058Z,15.40
2019-04-26T12:32:34.399Z,15.40
2019-04-26T12:33:43.645Z,15.50
2019-04-26T12:34:46.651Z,15.40
2019-04-26T12:35:56.773Z,15.40
2019-04-26T12:36:59.276Z,15.20
2019-04-26T12:38:04.534Z,15.30
2019-04-26T12:39:09.793Z,15.40
2019-04-26T12:40:16.119Z,15.40
2019-04-26T12:41:39.233Z,15.30
2019-04-26T12:42:28.189Z,15.30
2019-04-26T12:43:33.487Z,15.40
2019-04-26T12:44:46.622Z,15.40
2019-04-26T12:46:09.884Z,15.30
2019-04-26T12:47:19.283Z,15.30
2019-04-26T12:48:24.792Z,15.30
2019-04-26T12:49:30.048Z,15.40
2019-04-26T12:50:37.773Z,15.40
2019-04-26T12:51:42.715Z,15.40
2019-04-26T12:52:51.409Z,15.50
2019-04-26T12:53:56.085Z,15.50
2019-04-26T12:55:04.476Z,15.50
2019-04-26T12:56:10.315Z,15.40
2019-04-26T12:57:16.374Z,15.10
2019-04-26T12:58:21.601Z,15.10
2019-04-26T12:59:28.213Z,14.90
2019-04-26T13:00:37.588Z,14.90
2019-04-26T13:01:42.717Z,14.90
2019-04-26T13:02:50.171Z,14.90
2019-04-26T13:04:07.201Z,14.90
2019-04-26T13:05:14.515Z,14.90
2019-04-26T13:06:19.380Z,14.90
2019-04-26T13:07:24.938Z,14.90
2019-04-26T13:08:30.165Z,14.90
2019-04-26T13:09:36.996Z,14.80
2019-04-26T13:11:07.989Z,14.80
2019-04-26T13:12:35.625Z,14.80
2019-04-26T13:13:59.860Z,14.80
2019-04-26T13:16:02.092Z,14.90
2019-04-26T13:17:10.852Z,14.80
2019-04-26T13:18:16.115Z,14.90
2019-04-26T13:19:21.255Z,15.00
2019-04-26T13:20:28.731Z,15.00
2019-04-26T13:21:37.362Z,15.00
2019-04-26T13:22:46.258Z,15.10
2019-04-26T13:23:48.283Z,15.20
2019-04-26T13:24:53.631Z,15.30
2019-04-26T13:25:59.670Z,15.40
2019-04-26T13:27:10.062Z,15.40
2019-04-26T13:28:15.693Z,15.50
2019-04-26T13:29:19.608Z,15.60
2019-04-26T13:30:32.619Z,15.60
2019-04-26T13:31:32.057Z,15.60
2019-04-26T13:32:37.403Z,15.50
2019-04-26T13:33:44.988Z,15.50
2019-04-26T13:34:51.107Z,15.60
2019-04-26T13:36:02.605Z,15.70
2019-04-26T13:37:06.842Z,15.60
2019-04-26T13:38:12.125Z,15.60
2019-04-26T13:39:22.082Z,15.70
2019-04-26T13:40:25.739Z,15.60
2019-04-26T13:41:34.925Z,15.40
2019-04-26T13:42:39.744Z,15.30
2019-04-26T13:43:44.983Z,15.40
2019-04-26T13:45:09.246Z,15.30
2019-04-26T13:46:32.178Z,15.30
2019-04-26T13:47:55.520Z,15.30
2019-04-26T13:49:09.745Z,15.10
2019-04-26T13:50:18.505Z,15.20
2019-04-26T13:51:24.186Z,15.30
2019-04-26T13:52:29.429Z,15.40
2019-04-26T13:53:34.605Z,15.40
2019-04-26T13:54:39.943Z,15.60
2019-04-26T13:55:45.184Z,15.60
2019-04-26T13:56:50.466Z,15.70
2019-04-26T13:57:56.075Z,15.70
2019-04-26T13:59:02.587Z,15.70
2019-04-26T14:00:11.699Z,15.60
2019-04-26T14:01:18.725Z,15.60
2019-04-26T14:02:23.807Z,15.60
2019-04-26T14:03:31.587Z,15.60
2019-04-26T14:04:37.223Z,15.60
2019-04-26T14:05:42.780Z,15.60
2019-04-26T14:06:50.120Z,15.60
2019-04-26T14:07:55.339Z,15.50
2019-04-26T14:09:02.803Z,15.60
2019-04-26T14:10:09.521Z,15.60
2019-04-26T14:11:14.760Z,15.70
2019-04-26T14:12:19.958Z,15.80
2019-04-26T14:13:26.101Z,15.80
2019-04-26T14:14:34.238Z,15.90
2019-04-26T14:15:39.485Z,15.90
2019-04-26T14:16:45.159Z,16.00
2019-04-26T14:17:50.378Z,16.00
2019-04-26T14:18:55.635Z,16.10
2019-04-26T14:20:00.800Z,16.10
2019-04-26T14:21:06.119Z,16.10
2019-04-26T14:22:12.703Z,16.00
2019-04-26T14:23:49.490Z,16.00
2019-04-26T14:24:58.920Z,16.00
2019-04-26T14:26:17.752Z,15.90
2019-04-26T14:27:27.881Z,15.90
2019-04-26T14:28:33.051Z,15.80
2019-04-26T14:29:39.704Z,15.80
2019-04-26T14:30:44.965Z,15.70
2019-04-26T14:31:51.336Z,15.70
2019-04-26T14:32:59.387Z,15.70
2019-04-26T14:34:12.174Z,15.70
2019-04-26T14:35:20.217Z,15.60
2019-04-26T14:36:26.808Z,15.60
2019-04-26T14:37:32.252Z,15.60
2019-04-26T14:38:40.069Z,15.60
2019-04-26T14:39:50.784Z,15.50
2019-04-26T14:41:03.251Z,15.60
2019-04-26T14:42:01.200Z,15.60
2019-04-26T14:43:07.269Z,15.60
2019-04-26T14:44:15.617Z,15.70
2019-04-26T14:45:23.855Z,15.70
2019-04-26T14:46:26.398Z,15.80
2019-04-26T14:47:32.013Z,15.80
2019-04-26T14:48:40.487Z,15.90
2019-04-26T14:49:44.418Z,16.00
2019-04-26T14:50:49.694Z,16.10
2019-04-26T14:51:56.175Z,16.20
2019-04-26T14:53:02.289Z,16.40
2019-04-26T14:54:11.464Z,16.20
2019-04-26T14:55:21.326Z,16.20
2019-04-26T14:56:29.306Z,16.30
2019-04-26T14:57:33.931Z,16.30
2019-04-26T15:01:07.031Z,16.30
2019-04-26T15:05:42.443Z,16.20
2019-04-26T15:06:36.679Z,16.00
2019-04-26T15:08:20.383Z,16.10
2019-04-26T15:09:56.126Z,16.10
2019-04-26T15:15:13.336Z,15.80
2019-04-26T15:16:22.138Z,15.80
2019-04-26T15:17:27.188Z,15.80
2019-04-26T15:18:33.842Z,15.90
2019-04-26T15:19:40.264Z,15.90
2019-04-26T15:20:46.540Z,15.80
2019-04-26T15:21:52.323Z,15.80
2019-04-26T15:22:57.864Z,15.80
2019-04-26T15:24:04.958Z,15.80
2019-04-26T15:25:11.946Z,15.70
2019-04-26T15:26:18.539Z,15.70
2019-04-26T15:27:24.081Z,15.70
2019-04-26T15:28:29.315Z,15.70
2019-04-26T15:29:34.601Z,15.60
2019-04-26T15:30:46.286Z,15.60
2019-04-26T15:31:46.810Z,15.70
2019-04-26T15:32:52.932Z,15.70
2019-04-26T15:33:58.470Z,15.80
2019-04-26T15:35:03.948Z,15.80
2019-04-26T15:36:12.825Z,15.80
2019-04-26T15:37:20.124Z,15.80
2019-04-26T15:38:26.789Z,15.80
2019-04-26T15:39:44.408Z,15.90
2019-04-26T15:41:11.734Z,15.90
2019-04-26T15:42:29.222Z,15.90
2019-04-26T15:44:11.375Z,16.00
2019-04-26T15:45:25.435Z,16.00
2019-04-26T15:46:53.715Z,16.00
2019-04-26T15:48:12.071Z,16.00
2019-04-26T15:49:34.694Z,16.10
2019-04-26T15:50:50.139Z,16.20
2019-04-26T15:51:50.476Z,16.20
2019-04-26T15:52:55.747Z,16.20
2019-04-26T15:54:00.917Z,16.30
2019-04-26T15:55:06.267Z,16.30
2019-04-26T15:56:14.557Z,16.30
2019-04-26T15:57:18.337Z,16.40
2019-04-26T15:58:23.521Z,16.40
2019-04-26T15:59:30.518Z,16.50
2019-04-26T16:00:38.390Z,16.40
2019-04-26T16:01:47.873Z,16.40
2019-04-26T16:02:52.823Z,16.30
2019-04-26T16:04:04.290Z,16.30
2019-04-26T16:05:08.819Z,16.20
2019-04-26T16:06:14.295Z,16.20
2019-04-26T16:07:27.251Z,16.20
2019-04-26T16:08:28.774Z,16.20
2019-04-26T16:09:36.887Z,16.10
2019-04-26T16:10:43.037Z,16.10
2019-04-26T16:11:50.550Z,16.10
2019-04-26T16:12:56.287Z,16.10
2019-04-26T16:14:02.137Z,16.10
2019-04-26T16:15:11.365Z,16.10
2019-04-26T16:16:16.493Z,16.10
2019-04-26T16:17:21.392Z,16.20
2019-04-26T16:18:26.745Z,16.20
2019-04-26T16:19:32.049Z,16.30
2019-04-26T16:20:40.473Z,16.40
2019-04-26T16:21:44.263Z,16.40